Time;durP1;ratioP1;P1;durP2;ratioP2;P2;SDS_P1;SDS_P2;PMS_P1;PMS_P2;Temp;Humidity;BMP_temperature;BMP_pressure;BME280_temperature;BME280_humidity;BME280_pressure;Samples;Min_cycle;Max_cycle;Signal;HPM_P1;HPM_P2
2023/12/15 00:00:00;;;;;;;5.80;3.70;;;;;;;8.63;100.00;100282.86;108110;1288;22012;-62
2023/12/15 00:02:26;;;;;;;7.00;3.70;;;;;;;8.67;100.00;100288.25;108157;1284;23064;-62
2023/12/15 00:04:52;;;;;;;6.20;3.90;;;;;;;8.68;100.00;100286.85;108111;1284;21997;-66
2023/12/15 00:07:18;;;;;;;7.70;3.40;;;;;;;8.71;100.00;100292.25;108130;1277;21988;-65
2023/12/15 00:09:43;;;;;;;5.60;3.30;;;;;;;8.72;100.00;100295.58;108106;1283;21994;-66
2023/12/15 00:12:09;;;;;;;5.80;3.70;;;;;;;8.78;100.00;100301.15;108138;1279;22027;-66
2023/12/15 00:14:34;;;;;;;7.30;3.90;;;;;;;8.80;100.00;100298.86;108124;1288;22037;-62
2023/12/15 00:17:01;;;;;;;8.20;4.00;;;;;;;8.79;100.00;100297.81;108099;1277;22006;-65
2023/12/15 00:19:27;;;;;;;6.10;3.60;;;;;;;8.77;100.00;100300.45;108206;1288;21992;-66
2023/12/15 00:21:52;;;;;;;8.00;3.90;;;;;;;8.79;100.00;100309.53;108091;1288;21994;-65
2023/12/15 00:24:18;;;;;;;6.60;3.90;;;;;;;8.85;100.00;100311.42;108118;1277;22029;-62
2023/12/15 00:26:43;;;;;;;6.50;3.90;;;;;;;8.85;100.00;100314.55;108103;1280;22026;-66
2023/12/15 00:29:09;;;;;;;8.90;4.60;;;;;;;8.82;100.00;100315.64;108130;1276;21993;-61
2023/12/15 00:31:35;;;;;;;7.80;4.70;;;;;;;8.77;100.00;100322.50;108113;1288;21996;-66
2023/12/15 00:34:00;;;;;;;8.30;4.30;;;;;;;8.67;100.00;100309.77;108116;1277;22188;-65
2023/12/15 00:36:27;;;;;;;7.90;4.40;;;;;;;8.67;100.00;100302.77;108138;1276;22000;-63
2023/12/15 00:38:52;;;;;;;6.00;3.70;;;;;;;8.60;100.00;100304.40;108120;1284;23730;-65
2023/12/15 00:41:18;;;;;;;7.80;4.10;;;;;;;8.57;100.00;100308.09;108106;1287;21993;-61
2023/12/15 00:43:44;;;;;;;6.30;4.10;;;;;;;8.54;100.00;100319.64;108189;1275;21988;-62
2023/12/15 00:46:09;;;;;;;6.40;4.30;;;;;;;8.49;100.00;100314.41;108113;1277;21992;-64
2023/12/15 00:48:35;;;;;;;7.30;4.80;;;;;;;8.48;100.00;100301.64;108114;1277;21995;-62
2023/12/15 00:51:00;;;;;;;7.30;4.30;;;;;;;8.47;100.00;100302.70;108164;1288;21992;-62
2023/12/15 00:53:26;;;;;;;7.60;5.10;;;;;;;8.43;100.00;100315.11;108083;1284;21996;-65
2023/12/15 00:55:54;;;;;;;6.50;4.50;;;;;;;8.45;100.00;100326.29;108112;1287;23653;-63
2023/12/15 00:58:19;;;;;;;7.40;4.90;;;;;;;8.41;100.00;100330.15;108155;1277;21993;-63
2023/12/15 01:00:45;;;;;;;7.70;5.10;;;;;;;8.43;100.00;100334.86;108086;1277;21993;-63
2023/12/15 01:03:10;;;;;;;7.20;4.60;;;;;;;8.47;100.00;100346.58;108100;1288;21990;-62
2023/12/15 01:05:36;;;;;;;7.40;5.00;;;;;;;8.43;100.00;100346.59;108085;1287;21997;-62
2023/12/15 01:08:02;;;;;;;9.40;5.10;;;;;;;8.41;99.98;100342.73;108116;1276;22457;-63
2023/12/15 01:10:28;;;;;;;8.40;5.30;;;;;;;8.35;99.87;100346.61;108130;1288;21996;-62
2023/12/15 01:12:54;;;;;;;8.40;5.40;;;;;;;8.38;99.88;100353.42;108132;1276;22226;-65
2023/12/15 01:15:19;;;;;;;10.30;5.50;;;;;;;8.41;99.48;100359.88;108103;1288;22025;-63
2023/12/15 01:17:45;;;;;;;11.00;5.20;;;;;;;8.43;99.54;100359.52;108164;1288;22170;-64
2023/12/15 01:20:11;;;;;;;7.80;5.10;;;;;;;8.36;98.80;100360.95;108120;1288;21990;-64
2023/12/15 01:22:37;;;;;;;10.50;5.40;;;;;;;8.32;97.91;100354.85;108134;1288;22011;-66
2023/12/15 01:25:03;;;;;;;12.10;5.60;;;;;;;8.30;97.71;100357.13;108141;1288;22456;-64
2023/12/15 01:27:29;;;;;;;7.50;5.30;;;;;;;8.32;97.72;100361.66;108107;1283;22027;-63
2023/12/15 01:29:54;;;;;;;13.60;6.10;;;;;;;8.33;97.35;100364.46;108118;1275;23722;-64
2023/12/15 01:32:20;;;;;;;8.00;5.60;;;;;;;8.29;97.21;100368.30;108123;1288;22000;-64
2023/12/15 01:34:45;;;;;;;7.90;5.40;;;;;;;8.30;97.18;100367.79;108152;1288;22000;-62
2023/12/15 01:37:11;;;;;;;7.00;4.90;;;;;;;8.30;96.62;100370.77;108114;1288;22008;-65
2023/12/15 01:39:37;;;;;;;8.80;6.00;;;;;;;8.31;96.47;100377.75;108105;1284;21985;-64
2023/12/15 01:42:03;;;;;;;7.90;5.30;;;;;;;8.31;96.75;100388.94;108104;1286;21993;-64
2023/12/15 01:44:28;;;;;;;8.10;5.20;;;;;;;8.28;96.15;100396.46;108129;1277;22044;-62
2023/12/15 01:46:54;;;;;;;8.30;5.10;;;;;;;8.28;96.34;100404.34;108102;1288;21987;-65
2023/12/15 01:49:19;;;;;;;7.80;4.90;;;;;;;8.33;96.63;100408.35;108110;1288;21990;-62
2023/12/15 01:51:45;;;;;;;10.30;5.70;;;;;;;8.28;96.05;100412.55;108123;1288;21997;-61
2023/12/15 01:54:11;;;;;;;7.80;5.30;;;;;;;8.26;95.99;100410.80;108103;1288;21985;-64
2023/12/15 01:56:36;;;;;;;7.70;5.50;;;;;;;8.31;96.39;100394.17;108105;1288;21996;-62
2023/12/15 01:59:02;;;;;;;8.20;5.10;;;;;;;8.29;95.97;100387.02;107904;1280;21993;-64
2023/12/15 02:01:27;;;;;;;7.70;5.20;;;;;;;8.26;95.59;100392.11;108114;1288;21989;-63
2023/12/15 02:03:53;;;;;;;8.70;5.60;;;;;;;8.21;95.14;100389.66;108099;1284;21986;-63
2023/12/15 02:06:19;;;;;;;9.60;6.40;;;;;;;8.20;95.57;100391.41;107338;1288;1002489;-61
2023/12/15 02:08:44;;;;;;;11.60;5.40;;;;;;;8.19;95.71;100395.61;108160;1284;21980;-64
2023/12/15 02:11:10;;;;;;;7.30;5.10;;;;;;;8.22;95.93;100401.73;108139;1277;22029;-64
2023/12/15 02:13:36;;;;;;;7.90;5.10;;;;;;;8.20;96.39;100409.94;108074;1288;22035;-64
2023/12/15 02:16:01;;;;;;;10.60;6.10;;;;;;;8.21;96.75;100415.52;108158;1277;21987;-64
2023/12/15 02:18:27;;;;;;;10.90;5.80;;;;;;;8.25;97.38;100420.41;108112;1284;23053;-63
2023/12/15 02:20:53;;;;;;;11.60;5.90;;;;;;;8.24;97.47;100420.60;108124;1288;21989;-61
2023/12/15 02:23:21;;;;;;;8.80;5.60;;;;;;;8.25;97.37;100424.79;108257;1287;22060;-61
2023/12/15 02:25:46;;;;;;;10.50;6.40;;;;;;;8.24;97.24;100423.04;108128;1287;21984;-63
2023/12/15 02:28:12;;;;;;;10.90;5.90;;;;;;;8.21;97.37;100418.85;108110;1276;22002;-64
2023/12/15 02:30:38;;;;;;;9.40;5.70;;;;;;;8.26;97.77;100418.32;107146;1284;1002344;-64
2023/12/15 02:33:03;;;;;;;8.30;5.80;;;;;;;8.24;97.51;100421.48;107375;1276;1002414;-61
2023/12/15 02:35:29;;;;;;;12.10;5.40;;;;;;;8.24;97.37;100420.25;108054;1287;22024;-61
2023/12/15 02:37:57;;;;;;;9.60;5.80;;;;;;;8.29;97.96;100415.34;107973;1281;22080;-61
2023/12/15 02:40:23;;;;;;;8.70;5.60;;;;;;;8.21;96.94;100414.30;108021;1276;21983;-62
2023/12/15 02:42:48;;;;;;;8.20;5.40;;;;;;;8.17;96.74;100409.42;108122;1287;21989;-63
2023/12/15 02:45:14;;;;;;;7.10;4.30;;;;;;;8.12;96.42;100411.20;108115;1287;21996;-62
2023/12/15 02:47:39;;;;;;;9.00;4.80;;;;;;;8.15;96.45;100412.93;108116;1277;22022;-63
2023/12/15 02:50:06;;;;;;;7.30;4.50;;;;;;;8.21;96.76;100416.59;108129;1281;21987;-62
2023/12/15 02:52:31;;;;;;;7.90;4.90;;;;;;;8.17;96.34;100422.19;108168;1277;21987;-62
2023/12/15 02:54:57;;;;;;;9.00;5.30;;;;;;;8.18;96.60;100423.92;108167;1287;21994;-62
2023/12/15 02:57:22;;;;;;;8.50;5.00;;;;;;;8.17;96.48;100429.70;108120;1281;21997;-61
2023/12/15 02:59:48;;;;;;;7.20;4.40;;;;;;;8.20;96.82;100441.75;108113;1287;22519;-63
2023/12/15 03:02:13;;;;;;;9.40;4.90;;;;;;;8.22;96.78;100449.27;108116;1287;21997;-62
2023/12/15 03:04:39;;;;;;;6.90;5.20;;;;;;;8.26;96.63;100453.63;108121;1276;21995;-62
2023/12/15 03:07:04;;;;;;;13.70;5.60;;;;;;;8.23;96.33;100465.88;108070;1281;21988;-64
2023/12/15 03:09:30;;;;;;;7.80;5.10;;;;;;;8.24;96.49;100479.16;108105;1278;21992;-63
2023/12/15 03:11:56;;;;;;;6.70;4.70;;;;;;;8.18;95.88;100480.05;108126;1276;21997;-63
2023/12/15 03:14:22;;;;;;;8.90;5.10;;;;;;;8.15;95.56;100485.80;108127;1288;21988;-62
2023/12/15 03:16:47;;;;;;;9.20;5.30;;;;;;;8.13;95.42;100489.30;107876;1288;21987;-64
2023/12/15 03:19:13;;;;;;;7.60;4.80;;;;;;;8.11;95.31;100489.13;108098;1277;23158;-61
2023/12/15 03:21:39;;;;;;;9.50;5.50;;;;;;;8.02;95.01;100489.48;108132;1287;21992;-61
2023/12/15 03:24:05;;;;;;;10.00;5.90;;;;;;;8.00;95.14;100496.30;108110;1277;22003;-61
2023/12/15 03:26:30;;;;;;;7.40;5.00;;;;;;;8.00;95.18;100504.16;108159;1277;21996;-63
2023/12/15 03:28:56;;;;;;;8.20;4.50;;;;;;;7.99;94.90;100507.48;108134;1288;22020;-63
2023/12/15 03:31:21;;;;;;;8.40;4.80;;;;;;;7.98;94.54;100515.16;108147;1288;21987;-63
2023/12/15 03:33:47;;;;;;;9.10;5.60;;;;;;;7.99;94.54;100521.80;108089;1288;21987;-63
2023/12/15 03:36:13;;;;;;;8.00;5.40;;;;;;;7.97;94.21;100531.95;108110;1287;21999;-62
2023/12/15 03:38:38;;;;;;;10.90;5.40;;;;;;;8.00;94.44;100533.52;108058;1287;21987;-62
2023/12/15 03:41:04;;;;;;;8.50;5.10;;;;;;;8.01;94.62;100539.11;108060;1284;21990;-62
2023/12/15 03:43:30;;;;;;;15.00;5.40;;;;;;;8.03;94.60;100548.20;108101;1287;21982;-64
2023/12/15 03:45:56;;;;;;;8.10;5.00;;;;;;;8.11;94.90;100556.42;108113;1284;21979;-62
2023/12/15 03:48:21;;;;;;;8.30;6.30;;;;;;;8.08;94.47;100559.73;108123;1284;22444;-62
2023/12/15 03:50:47;;;;;;;8.50;5.60;;;;;;;8.08;94.30;100562.71;108176;1281;21998;-62
2023/12/15 03:53:12;;;;;;;8.60;5.50;;;;;;;8.10;94.21;100561.31;108138;1287;23638;-63
2023/12/15 03:55:38;;;;;;;8.70;4.30;;;;;;;8.12;94.26;100559.92;108162;1281;21993;-61
2023/12/15 03:58:03;;;;;;;9.50;5.30;;;;;;;8.11;93.75;100560.80;108071;1287;21990;-62
2023/12/15 04:00:29;;;;;;;8.00;5.00;;;;;;;8.18;94.37;100560.10;108104;1281;22003;-60
2023/12/15 04:02:55;;;;;;;8.70;5.10;;;;;;;8.16;94.61;100566.21;108123;1287;21989;-62
2023/12/15 04:05:21;;;;;;;8.20;5.20;;;;;;;8.16;94.65;100564.46;108094;1283;22049;-61
2023/12/15 04:07:46;;;;;;;10.50;5.10;;;;;;;8.12;94.37;100569.52;108082;1278;23078;-62
2023/12/15 04:10:12;;;;;;;7.10;4.80;;;;;;;8.16;94.91;100570.23;108120;1287;21992;-61
2023/12/15 04:12:37;;;;;;;14.70;4.80;;;;;;;8.21;95.42;100566.04;108091;1283;21999;-60
2023/12/15 04:15:03;;;;;;;7.60;4.30;;;;;;;8.19;94.85;100573.90;108110;1287;22022;-62
2023/12/15 04:17:29;;;;;;;7.20;4.70;;;;;;;8.08;93.80;100578.27;108171;1287;21992;-63
2023/12/15 04:19:55;;;;;;;8.80;4.60;;;;;;;8.11;94.43;100588.41;108154;1287;21989;-61
2023/12/15 04:22:22;;;;;;;7.30;4.80;;;;;;;8.12;94.62;100599.79;108164;1287;21992;-62
2023/12/15 04:24:49;;;;;;;6.70;4.60;;;;;;;8.10;94.59;100602.58;108131;1287;22433;-62
2023/12/15 04:27:14;;;;;;;7.50;4.90;;;;;;;8.10;94.52;100600.13;108117;1285;21985;-62
2023/12/15 04:29:40;;;;;;;8.90;4.40;;;;;;;8.12;94.58;100599.25;108104;1281;22183;-62
2023/12/15 04:32:06;;;;;;;6.80;4.90;;;;;;;8.14;94.92;100608.33;108109;1287;21992;-63
2023/12/15 04:34:33;;;;;;;7.00;4.70;;;;;;;8.22;95.41;100618.30;108109;1287;22029;-61
2023/12/15 04:36:59;;;;;;;11.30;4.90;;;;;;;8.27;95.78;100623.55;108088;1287;21994;-62
2023/12/15 04:39:25;;;;;;;7.00;5.10;;;;;;;8.29;95.33;100629.86;108116;1287;21993;-61
2023/12/15 04:41:50;;;;;;;7.20;4.60;;;;;;;8.27;94.94;100642.80;108129;1287;22642;-63
2023/12/15 04:44:16;;;;;;;7.00;4.50;;;;;;;8.21;94.28;100643.48;108079;1287;22078;-61
2023/12/15 04:46:42;;;;;;;9.30;4.70;;;;;;;8.21;94.55;100643.30;108114;1287;21998;-63
2023/12/15 04:49:07;;;;;;;10.10;5.30;;;;;;;8.24;95.33;100641.56;108113;1287;22451;-61
2023/12/15 04:51:33;;;;;;;7.50;4.90;;;;;;;8.27;95.68;100640.17;108124;1281;23139;-63
2023/12/15 04:53:58;;;;;;;8.30;5.20;;;;;;;8.28;95.65;100642.27;108124;1287;22001;-63
2023/12/15 04:56:25;;;;;;;9.10;4.40;;;;;;;8.26;95.49;100646.29;108090;1280;21990;-64
2023/12/15 04:58:51;;;;;;;10.30;5.20;;;;;;;8.23;95.14;100649.25;108097;1287;22474;-62
2023/12/15 05:01:16;;;;;;;6.10;4.30;;;;;;;8.24;95.50;100653.10;108089;1287;21994;-62
2023/12/15 05:03:43;;;;;;;7.80;4.90;;;;;;;8.26;95.82;100653.80;108162;1287;22004;-63
2023/12/15 05:06:18;;;;;;;8.20;5.00;;;;;;;8.32;96.52;100656.09;108115;1284;22092;-63
2023/12/15 05:08:45;;;;;;;10.10;5.70;;;;;;;8.38;96.70;100665.54;108121;1283;21989;-63
2023/12/15 05:11:10;;;;;;;9.20;5.50;;;;;;;8.43;96.63;100674.81;108133;1287;22756;-62
2023/12/15 05:13:36;;;;;;;9.10;5.30;;;;;;;8.45;96.64;100689.33;108166;1278;21999;-61
2023/12/15 05:16:02;;;;;;;9.90;5.20;;;;;;;8.45;96.16;100697.20;108197;1284;21992;-62
2023/12/15 05:18:28;;;;;;;8.20;4.00;;;;;;;8.42;95.57;100698.41;108077;1287;21994;-62
2023/12/15 05:20:53;;;;;;;8.10;4.20;;;;;;;8.38;94.93;100703.14;108105;1283;21994;-61
2023/12/15 05:23:19;;;;;;;14.50;5.40;;;;;;;8.35;96.21;100709.96;108056;1281;22457;-61
2023/12/15 05:25:45;;;;;;;9.70;4.90;;;;;;;8.42;97.90;100713.11;107879;1287;22004;-61
2023/12/15 05:28:10;;;;;;;12.40;5.30;;;;;;;8.48;97.64;100717.16;108101;1288;21987;-62
2023/12/15 05:30:36;;;;;;;13.40;4.90;;;;;;;8.54;98.30;100722.61;108111;1287;21991;-62
2023/12/15 05:33:01;;;;;;;16.50;6.20;;;;;;;8.61;98.51;100727.69;108067;1288;21989;-62
2023/12/15 05:35:27;;;;;;;16.00;5.00;;;;;;;8.69;99.03;100722.80;108135;1288;21989;-63
2023/12/15 05:37:53;;;;;;;15.00;6.30;;;;;;;8.77;99.59;100722.29;108113;1284;21992;-61
2023/12/15 05:40:18;;;;;;;10.90;5.00;;;;;;;8.84;99.87;100725.78;108062;1287;21992;-62
2023/12/15 05:42:44;;;;;;;11.70;4.80;;;;;;;8.91;99.78;100732.95;108032;1287;22000;-63
2023/12/15 05:45:11;;;;;;;15.40;5.50;;;;;;;8.95;99.66;100740.14;108144;1277;21963;-62
2023/12/15 05:47:36;;;;;;;12.60;5.00;;;;;;;9.01;100.00;100745.92;108186;1287;21991;-64
2023/12/15 05:50:03;;;;;;;6.60;4.30;;;;;;;9.04;98.63;100751.70;108230;1287;22036;-61
2023/12/15 05:52:28;;;;;;;12.70;5.30;;;;;;;8.98;96.72;100756.42;108297;1287;21990;-62
2023/12/15 05:54:54;;;;;;;9.90;5.70;;;;;;;8.90;96.32;100763.93;108182;1287;21987;-62
2023/12/15 05:57:19;;;;;;;6.20;4.30;;;;;;;8.81;95.40;100771.98;108113;1287;22003;-62
2023/12/15 05:59:45;;;;;;;6.70;3.80;;;;;;;8.71;94.99;100773.71;108127;1287;21990;-61
2023/12/15 06:02:11;;;;;;;8.40;3.60;;;;;;;8.65;95.08;100778.95;108123;1287;21989;-62
2023/12/15 06:04:36;;;;;;;6.30;4.00;;;;;;;8.62;95.58;100779.82;108175;1281;22043;-62
2023/12/15 06:07:02;;;;;;;7.50;4.20;;;;;;;8.57;95.19;100783.84;108117;1287;22027;-63
2023/12/15 06:09:27;;;;;;;8.00;4.80;;;;;;;8.51;94.65;100792.20;108086;1277;22000;-63
2023/12/15 06:11:53;;;;;;;8.60;4.50;;;;;;;8.47;95.08;100792.52;108117;1287;21987;-63
2023/12/15 06:14:20;;;;;;;7.30;4.40;;;;;;;8.44;94.91;100789.70;108144;1287;22016;-64
2023/12/15 06:16:47;;;;;;;7.40;4.40;;;;;;;8.37;94.15;100785.67;108155;1287;22029;-63
2023/12/15 06:19:13;;;;;;;8.20;5.60;;;;;;;8.32;94.44;100787.05;108148;1287;23132;-63
2023/12/15 06:21:39;;;;;;;9.30;5.70;;;;;;;8.28;94.44;100791.58;108247;1287;22003;-64
2023/12/15 06:24:05;;;;;;;8.30;5.40;;;;;;;8.24;94.04;100801.54;108076;1281;21991;-62
2023/12/15 06:26:31;;;;;;;8.90;5.30;;;;;;;8.25;94.23;100805.20;108117;1287;21995;-60
2023/12/15 06:28:56;;;;;;;10.10;6.50;;;;;;;8.29;94.42;100803.30;108107;1287;21993;-60
2023/12/15 06:31:22;;;;;;;9.70;6.40;;;;;;;8.31;94.50;100810.13;108183;1281;21981;-61
2023/12/15 06:33:48;;;;;;;10.00;7.10;;;;;;;8.32;94.64;100822.90;108130;1281;22850;-61
2023/12/15 06:36:14;;;;;;;12.00;7.40;;;;;;;8.33;94.65;100834.45;108092;1287;22027;-60
2023/12/15 06:38:43;;;;;;;12.50;8.10;;;;;;;8.32;94.63;100841.60;108125;1274;21994;-62
2023/12/15 06:41:09;;;;;;;11.60;7.10;;;;;;;8.28;93.57;100842.45;108004;1281;158795;-62
2023/12/15 06:43:38;;;;;;;13.30;7.00;;;;;;;8.25;93.33;100846.29;107457;1281;1002561;-60
2023/12/15 06:46:04;;;;;;;11.80;7.10;;;;;;;8.23;93.44;100852.92;108148;1287;21994;-61
2023/12/15 06:48:30;;;;;;;14.00;8.30;;;;;;;8.21;93.13;100860.42;108143;1287;22449;-62
2023/12/15 06:50:56;;;;;;;13.20;7.80;;;;;;;8.15;92.76;100864.44;108294;1287;21956;-63
2023/12/15 06:53:22;;;;;;;10.40;7.40;;;;;;;8.15;93.49;100871.08;107907;1288;23116;-61
2023/12/15 06:55:47;;;;;;;12.20;7.40;;;;;;;8.25;95.53;100872.88;109351;1275;21999;-61
2023/12/15 06:58:13;;;;;;;10.60;6.00;;;;;;;8.37;96.29;100874.32;108112;1288;21997;-61
2023/12/15 07:00:39;;;;;;;9.40;6.30;;;;;;;8.49;96.98;100872.98;108156;1282;21984;-60
2023/12/15 07:03:05;;;;;;;9.70;5.80;;;;;;;8.55;96.53;100871.63;108376;1287;23008;-60
2023/12/15 07:05:30;;;;;;;8.90;4.90;;;;;;;8.58;95.75;100879.00;108030;1283;21984;-61
2023/12/15 07:07:58;;;;;;;9.90;5.30;;;;;;;8.61;95.68;100895.80;108345;1277;22050;-60
2023/12/15 07:10:24;;;;;;;8.60;5.50;;;;;;;8.56;93.76;100906.80;108205;1287;21989;-62
2023/12/15 07:12:51;;;;;;;12.30;6.00;;;;;;;8.48;92.69;100912.35;107463;1287;1002279;-60
2023/12/15 07:15:16;;;;;;;8.70;5.90;;;;;;;8.38;91.78;100919.63;108081;1286;22008;-61
2023/12/15 07:17:42;;;;;;;12.10;6.60;;;;;;;8.42;93.43;100921.05;108083;1287;21989;-61
2023/12/15 07:20:08;;;;;;;9.00;6.00;;;;;;;8.40;92.96;100923.30;108086;1284;21986;-60
2023/12/15 07:22:34;;;;;;;9.10;6.10;;;;;;;8.34;92.28;100931.67;108143;1287;21994;-62
2023/12/15 07:25:01;;;;;;;8.80;5.40;;;;;;;8.35;92.38;100939.89;108082;1288;22023;-63
2023/12/15 07:27:26;;;;;;;9.40;6.00;;;;;;;8.30;91.88;100941.27;108133;1280;22454;-61
2023/12/15 07:29:52;;;;;;;9.50;5.90;;;;;;;8.25;92.08;100936.68;108104;1287;22455;-62
2023/12/15 07:32:18;;;;;;;9.90;6.60;;;;;;;8.26;92.84;100931.79;108100;1279;21986;-63
2023/12/15 07:34:44;;;;;;;10.20;6.80;;;;;;;8.20;92.05;100936.46;108060;1288;21996;-61
2023/12/15 07:37:09;;;;;;;12.00;7.60;;;;;;;8.11;91.41;100950.74;108081;1287;21993;-63
2023/12/15 07:39:35;;;;;;;31.10;16.00;;;;;;;8.00;90.77;100958.54;108072;1278;21996;-61
2023/12/15 07:42:00;;;;;;;17.40;11.10;;;;;;;8.01;91.63;100956.45;108031;1284;22386;-63
2023/12/15 07:44:26;;;;;;;12.80;8.70;;;;;;;8.05;92.59;100963.13;108072;1288;21989;-62
2023/12/15 07:46:54;;;;;;;51.30;26.20;;;;;;;8.08;92.90;100976.95;108093;1277;21991;-62
2023/12/15 07:49:20;;;;;;;47.70;25.50;;;;;;;8.11;93.15;100986.23;108116;1287;21997;-62
2023/12/15 07:51:46;;;;;;;21.70;13.10;;;;;;;8.15;93.66;100993.63;108121;1281;22240;-63
2023/12/15 07:54:12;;;;;;;14.10;9.10;;;;;;;8.14;93.16;100990.29;107894;1275;21996;-61
2023/12/15 07:56:37;;;;;;;13.90;8.70;;;;;;;8.10;92.63;100998.11;107337;1284;1003073;-62
2023/12/15 07:59:03;;;;;;;14.30;9.30;;;;;;;8.08;92.76;101004.73;108095;1283;21991;-60
2023/12/15 08:01:29;;;;;;;17.00;9.40;;;;;;;8.11;93.35;101006.52;108100;1288;21974;-63
2023/12/15 08:03:54;;;;;;;14.00;8.80;;;;;;;8.14;93.58;101009.33;108037;1287;21988;-61
2023/12/15 08:06:20;;;;;;;23.60;16.80;;;;;;;8.14;93.49;101017.38;108092;1281;22569;-60
2023/12/15 08:08:46;;;;;;;28.40;20.70;;;;;;;8.14;93.19;101027.17;108113;1288;21992;-61
2023/12/15 08:11:13;;;;;;;20.70;13.10;;;;;;;8.08;91.80;101027.11;108170;1288;21987;-61
2023/12/15 08:13:39;;;;;;;19.20;10.50;;;;;;;8.03;91.34;101030.02;108100;1284;22049;-62
2023/12/15 08:16:05;;;;;;;16.40;9.50;;;;;;;8.05;92.01;101029.35;108212;1287;21986;-61
2023/12/15 08:18:31;;;;;;;15.10;9.90;;;;;;;8.06;92.15;101029.72;108140;1287;21986;-62
2023/12/15 08:20:57;;;;;;;16.70;9.80;;;;;;;8.08;92.75;101033.23;108121;1278;21987;-61
2023/12/15 08:23:23;;;;;;;24.10;14.00;;;;;;;8.10;92.82;101040.23;108146;1287;21992;-62
2023/12/15 08:25:48;;;;;;;16.90;9.40;;;;;;;8.11;92.59;101047.95;107357;1287;1002421;-61
2023/12/15 08:28:23;;;;;;;16.60;9.70;;;;;;;8.12;92.55;101063.34;108154;1287;21991;-61
2023/12/15 08:30:49;;;;;;;16.70;10.50;;;;;;;8.16;93.21;101068.43;108148;1284;22028;-60
2023/12/15 08:33:15;;;;;;;15.40;11.10;;;;;;;8.19;92.78;101067.41;108141;1287;21987;-62
2023/12/15 08:35:41;;;;;;;15.60;9.90;;;;;;;8.14;91.85;101066.15;108149;1284;21991;-61
2023/12/15 08:38:07;;;;;;;17.00;8.70;;;;;;;8.12;92.21;101065.44;108101;1287;21990;-62
2023/12/15 08:40:32;;;;;;;16.80;8.60;;;;;;;8.13;92.75;101066.67;108104;1287;22060;-60
2023/12/15 08:42:58;;;;;;;15.50;8.50;;;;;;;8.18;93.19;101072.30;108107;1287;22046;-61
2023/12/15 08:45:24;;;;;;;16.80;11.20;;;;;;;8.22;93.09;101077.23;108107;1279;21991;-62
2023/12/15 08:47:49;;;;;;;15.20;10.10;;;;;;;8.22;92.59;101077.40;108078;1277;21983;-62
2023/12/15 08:50:15;;;;;;;16.20;10.50;;;;;;;8.16;91.70;101080.33;108224;1278;21987;-61
2023/12/15 08:52:41;;;;;;;15.80;9.70;;;;;;;8.16;92.06;101079.45;108110;1287;21996;-64
2023/12/15 08:55:07;;;;;;;17.30;10.00;;;;;;;8.16;92.31;101078.56;108101;1287;21989;-61
2023/12/15 08:57:32;;;;;;;25.40;16.30;;;;;;;8.16;92.18;101075.60;108113;1281;21989;-61
2023/12/15 08:59:58;;;;;;;20.10;12.10;;;;;;;8.13;91.48;101077.34;108097;1287;21986;-60
2023/12/15 09:02:25;;;;;;;19.00;12.20;;;;;;;8.12;91.64;101078.38;107410;1281;1002604;-61
2023/12/15 09:04:52;;;;;;;16.80;11.80;;;;;;;8.10;91.89;101083.06;108127;1287;21987;-60
2023/12/15 09:07:18;;;;;;;14.00;9.30;;;;;;;8.10;91.89;101090.76;108157;1287;21989;-61
2023/12/15 09:09:43;;;;;;;12.80;9.50;;;;;;;8.10;91.65;101094.95;108238;1287;23079;-60
2023/12/15 09:12:10;;;;;;;16.10;11.10;;;;;;;8.02;90.92;101094.00;108206;1286;21993;-61
2023/12/15 09:14:36;;;;;;;17.20;10.70;;;;;;;8.07;91.75;101097.02;108215;1284;21986;-61
2023/12/15 09:17:02;;;;;;;13.70;8.80;;;;;;;8.00;91.41;101098.35;108035;1287;21992;-61
2023/12/15 09:19:28;;;;;;;13.60;8.80;;;;;;;7.97;90.22;101102.16;108199;1278;21989;-60
2023/12/15 09:21:54;;;;;;;10.40;7.20;;;;;;;8.00;90.36;101108.48;108125;1287;21992;-61
2023/12/15 09:24:20;;;;;;;13.70;8.60;;;;;;;8.04;91.05;101110.11;108112;1287;21986;-62
2023/12/15 09:26:45;;;;;;;16.20;11.00;;;;;;;8.10;91.36;101104.40;108119;1281;22170;-61
2023/12/15 09:29:11;;;;;;;12.50;8.40;;;;;;;8.12;91.16;101097.08;108091;1287;21985;-61
2023/12/15 09:31:37;;;;;;;14.40;8.70;;;;;;;8.14;90.97;101095.87;108122;1281;21992;-61
2023/12/15 09:34:03;;;;;;;13.40;7.30;;;;;;;8.01;89.86;101103.60;108122;1281;21981;-61
2023/12/15 09:36:29;;;;;;;10.70;7.70;;;;;;;8.04;90.03;101109.05;108155;1287;21991;-61
2023/12/15 09:38:55;;;;;;;14.90;9.80;;;;;;;8.03;90.21;101104.33;108173;1284;21981;-60
2023/12/15 09:41:21;;;;;;;11.10;7.90;;;;;;;8.11;90.98;101105.98;108149;1287;21989;-61
2023/12/15 09:43:47;;;;;;;12.50;5.70;;;;;;;8.15;90.69;101105.15;108106;1283;21990;-61
2023/12/15 09:46:12;;;;;;;11.90;6.20;;;;;;;8.20;90.91;101104.48;108094;1287;22312;-61
2023/12/15 09:48:38;;;;;;;11.50;7.70;;;;;;;8.24;90.80;101112.20;108131;1284;24762;-61
2023/12/15 09:51:30;;;;;;;11.50;7.40;;;;;;;8.27;90.93;101113.13;108095;1287;21996;-61
2023/12/15 09:53:56;;;;;;;9.80;6.30;;;;;;;8.33;91.02;101114.05;108028;1287;21992;-61
2023/12/15 09:56:22;;;;;;;8.10;5.10;;;;;;;8.37;90.72;101122.65;108165;1278;21989;-62
2023/12/15 09:58:47;;;;;;;7.90;4.30;;;;;;;8.42;90.95;101126.02;108171;1287;21984;-61
2023/12/15 10:01:13;;;;;;;6.10;3.80;;;;;;;8.47;90.87;101136.57;108121;1287;21988;-61
2023/12/15 10:03:39;;;;;;;10.20;5.20;;;;;;;8.50;90.89;101149.02;108122;1287;22083;-62
2023/12/15 10:06:06;;;;;;;8.20;4.60;;;;;;;8.55;93.64;101150.81;108139;1281;21994;-63
2023/12/15 10:08:44;;;;;;;7.50;4.20;;;;;;;8.61;93.63;101143.52;108221;1287;21991;-61
2023/12/15 10:11:10;;;;;;;14.60;4.30;;;;;;;8.73;95.46;101137.14;108248;1277;24311;-61
2023/12/15 10:13:39;;;;;;;9.20;3.70;;;;;;;8.84;95.44;101132.14;108134;1287;21986;-62
2023/12/15 10:16:05;;;;;;;5.80;3.30;;;;;;;8.84;91.93;101132.14;108166;1286;21989;-61
2023/12/15 10:18:31;;;;;;;6.10;3.80;;;;;;;8.79;89.71;101133.68;108162;1287;22024;-62
2023/12/15 10:20:57;;;;;;;6.60;3.20;;;;;;;8.68;88.73;101131.86;108037;1287;23750;-61
2023/12/15 10:23:26;;;;;;;7.10;3.80;;;;;;;8.66;89.14;101135.86;108130;1278;21987;-62
2023/12/15 10:25:53;;;;;;;6.10;3.10;;;;;;;8.66;90.27;101142.67;108140;1284;21983;-61
2023/12/15 10:28:22;;;;;;;6.20;3.10;;;;;;;8.70;90.85;101154.60;108079;1287;23751;-61
2023/12/15 10:30:51;;;;;;;5.20;3.20;;;;;;;8.68;90.00;101162.29;108121;1287;21983;-61
2023/12/15 10:33:17;;;;;;;4.40;2.80;;;;;;;8.67;89.64;101172.09;108065;1278;21983;-62
2023/12/15 10:35:46;;;;;;;5.60;3.10;;;;;;;8.65;89.67;101172.40;108094;1287;22062;-61
2023/12/15 10:38:11;;;;;;;8.90;4.80;;;;;;;8.66;90.06;101167.34;108134;1277;21974;-61
2023/12/15 10:40:37;;;;;;;4.80;2.90;;;;;;;8.60;88.83;101168.34;107981;1287;22477;-61
2023/12/15 10:43:03;;;;;;;4.30;2.40;;;;;;;8.58;88.46;101173.58;108074;1276;21997;-61
2023/12/15 10:45:29;;;;;;;6.10;2.80;;;;;;;8.60;89.22;101172.89;108069;1287;21984;-61
2023/12/15 10:47:56;;;;;;;5.90;3.30;;;;;;;8.60;90.13;101176.05;107985;1287;21986;-62
2023/12/15 10:50:22;;;;;;;6.40;3.30;;;;;;;8.58;89.73;101183.73;108233;1284;21985;-62
2023/12/15 10:52:48;;;;;;;6.80;3.40;;;;;;;8.56;89.62;101189.48;108110;1277;21984;-63
2023/12/15 10:55:14;;;;;;;8.40;3.80;;;;;;;8.61;90.32;101188.48;107985;1287;21995;-61
2023/12/15 10:57:41;;;;;;;6.00;2.50;;;;;;;8.64;90.71;101193.21;107997;1287;21994;-61
2023/12/15 11:00:07;;;;;;;4.80;2.40;;;;;;;8.59;89.10;101188.63;108187;1281;21995;-61
2023/12/15 11:02:33;;;;;;;5.10;2.80;;;;;;;8.58;89.05;101181.82;108105;1287;23456;-61
2023/12/15 11:04:59;;;;;;;5.60;3.20;;;;;;;8.58;89.31;101191.26;107998;1275;21992;-62
2023/12/15 11:07:25;;;;;;;5.00;3.00;;;;;;;8.60;89.46;101194.95;108083;1276;21989;-63
2023/12/15 11:09:50;;;;;;;4.70;2.70;;;;;;;8.60;90.01;101201.60;108101;1287;22442;-61
2023/12/15 11:12:32;;;;;;;6.80;3.00;;;;;;;8.62;90.04;101202.48;108047;1277;21996;-63